Time;durP1;ratioP1;P1;durP2;ratioP2;P2;SDS_P1;SDS_P2;PMS_P1;PMS_P2;Temp;Humidity;BMP_temperature;BMP_pressure;BME280_temperature;BME280_humidity;BME280_pressure;Samples;Min_cycle;Max_cycle;Signal;HPM_P1;HPM_P2
2021/03/27 00:02:31;;;;;;;15.18;12.85;;;8.40;99.90;;;;;;4989405;28;20034;-78
2021/03/27 00:05:21;;;;;;;14.38;12.15;;;8.40;99.90;;;;;;5005045;28;20061;-78
2021/03/27 00:08:10;;;;;;;13.07;11.68;;;8.30;99.90;;;;;;4994379;28;20460;-78
2021/03/27 00:10:42;;;;;;;15.40;12.55;;;8.30;99.90;;;;;;4986311;28;20042;-78
2021/03/27 00:13:48;;;;;;;13.38;11.98;;;8.30;99.90;;;;;;4998902;28;20065;-77
2021/03/27 00:16:32;;;;;;;16.95;13.18;;;8.30;99.90;;;;;;4962327;28;20579;-77
2021/03/27 00:19:10;;;;;;;16.65;12.63;;;8.20;99.90;;;;;;4970926;28;20302;-77
2021/03/27 00:21:54;;;;;;;18.23;13.45;;;8.10;99.90;;;;;;4988270;28;20539;-77
2021/03/27 00:24:51;;;;;;;14.97;13.27;;;8.10;99.90;;;;;;4972606;28;20244;-77
2021/03/27 00:27:24;;;;;;;17.20;12.93;;;8.10;99.90;;;;;;4973656;28;20060;-77
2021/03/27 00:29:57;;;;;;;13.60;12.40;;;8.10;99.90;;;;;;4970933;28;20382;-77
2021/03/27 00:32:30;;;;;;;14.45;12.00;;;8.00;99.90;;;;;;4969114;28;20046;-78
2021/03/27 00:35:03;;;;;;;18.38;13.05;;;8.00;99.90;;;;;;4962614;28;20054;-78
2021/03/27 00:37:32;;;;;;;13.45;11.95;;;8.00;99.90;;;;;;4979492;28;20505;-77
2021/03/27 00:40:11;;;;;;;13.60;12.15;;;7.90;99.90;;;;;;4954587;28;20038;-78
2021/03/27 00:42:42;;;;;;;14.98;13.30;;;7.90;99.90;;;;;;4954135;28;20061;-77
2021/03/27 00:45:15;;;;;;;13.63;11.45;;;7.90;99.90;;;;;;4970388;28;20054;-77
2021/03/27 00:48:07;;;;;;;14.35;12.95;;;7.90;99.90;;;;;;5002639;28;20046;-78
2021/03/27 00:50:55;;;;;;;13.82;12.13;;;7.80;99.90;;;;;;4996112;28;20093;-77
2021/03/27 00:53:39;;;;;;;14.55;12.32;;;7.90;99.90;;;;;;4958046;28;20050;-77
2021/03/27 00:56:19;;;;;;;15.75;13.05;;;7.90;99.90;;;;;;4962677;28;20046;-76
2021/03/27 00:59:00;;;;;;;15.13;13.57;;;7.90;99.90;;;;;;4955321;28;20078;-76
2021/03/27 01:01:38;;;;;;;15.85;13.45;;;7.90;99.90;;;;;;4955885;28;20639;-76
2021/03/27 01:04:33;;;;;;;14.30;12.77;;;7.90;99.90;;;;;;4977678;28;20054;-77
2021/03/27 01:07:27;;;;;;;13.45;11.70;;;7.90;99.90;;;;;;4978312;28;20038;-77
2021/03/27 01:10:31;;;;;;;13.18;11.88;;;8.10;99.90;;;;;;4990123;28;20052;-79
2021/03/27 01:13:01;;;;;;;12.95;11.65;;;8.10;99.90;;;;;;4975018;28;20504;-77
2021/03/27 01:15:49;;;;;;;12.10;10.95;;;8.20;99.90;;;;;;4991281;28;20060;-78
2021/03/27 01:18:30;;;;;;;13.75;10.90;;;8.20;99.90;;;;;;4982599;28;20728;-77
2021/03/27 01:21:02;;;;;;;12.45;11.35;;;8.30;99.90;;;;;;4953727;28;20101;-77
2021/03/27 01:23:29;;;;;;;12.90;11.50;;;8.40;99.90;;;;;;4981781;28;20053;-77
2021/03/27 01:26:03;;;;;;;12.65;9.93;;;8.50;99.90;;;;;;4957417;28;20046;-77
2021/03/27 01:28:41;;;;;;;12.45;10.70;;;8.60;99.90;;;;;;4972420;28;20054;-78
2021/03/27 01:31:18;;;;;;;11.52;10.07;;;8.60;99.90;;;;;;4972659;28;20052;-77
2021/03/27 01:34:09;;;;;;;10.32;9.35;;;8.70;99.90;;;;;;4988627;28;20690;-79
2021/03/27 01:36:46;;;;;;;10.68;9.75;;;8.80;99.90;;;;;;4963959;28;20089;-76
2021/03/27 01:39:28;;;;;;;11.18;9.63;;;8.80;99.90;;;;;;4975582;28;20615;-77
2021/03/27 01:41:58;;;;;;;10.13;9.05;;;8.90;99.90;;;;;;4974784;28;20128;-77
2021/03/27 01:45:00;;;;;;;10.50;9.48;;;8.90;99.90;;;;;;5003483;28;20046;-77
2021/03/27 01:47:36;;;;;;;18.55;11.75;;;8.90;99.90;;;;;;4953852;28;20468;-77
2021/03/27 01:50:36;;;;;;;12.55;11.35;;;8.90;99.90;;;;;;4970840;28;20042;-77
2021/03/27 01:53:21;;;;;;;11.93;10.77;;;8.80;99.90;;;;;;4981215;28;20050;-77
2021/03/27 01:56:23;;;;;;;13.43;11.95;;;8.70;99.90;;;;;;4952813;28;20038;-77
2021/03/27 01:58:54;;;;;;;12.95;11.95;;;8.70;99.90;;;;;;4943936;28;20062;-77
2021/03/27 02:01:41;;;;;;;12.15;11.05;;;8.60;99.90;;;;;;4951589;28;20051;-77
2021/03/27 02:04:20;;;;;;;12.02;11.02;;;8.60;99.90;;;;;;4990623;28;20656;-77
2021/03/27 02:06:52;;;;;;;12.50;11.07;;;8.70;99.90;;;;;;4971536;28;20054;-78
2021/03/27 02:09:33;;;;;;;12.07;10.70;;;8.70;99.90;;;;;;4969618;28;20110;-78
2021/03/27 02:12:00;;;;;;;12.75;11.68;;;8.80;99.90;;;;;;4990676;28;20071;-78
2021/03/27 02:14:35;;;;;;;12.02;11.02;;;8.90;99.90;;;;;;4972444;28;20058;-78
2021/03/27 02:17:29;;;;;;;12.00;10.90;;;9.00;99.90;;;;;;4984405;28;20401;-76
2021/03/27 02:20:14;;;;;;;16.35;14.73;;;8.90;99.90;;;;;;4955985;28;20508;-78
2021/03/27 02:22:56;;;;;;;13.50;12.25;;;8.80;99.90;;;;;;5001232;28;20042;-78
2021/03/27 02:26:00;;;;;;;13.82;12.32;;;8.80;99.90;;;;;;4954749;28;20045;-77
2021/03/27 02:28:29;;;;;;;12.68;11.38;;;8.80;99.90;;;;;;5005012;28;20050;-77
2021/03/27 02:31:19;;;;;;;19.95;17.23;;;8.80;99.90;;;;;;4988076;28;20104;-79
2021/03/27 02:34:09;;;;;;;20.08;17.95;;;8.70;99.90;;;;;;4987713;28;20428;-78
2021/03/27 02:37:01;;;;;;;27.02;20.88;;;8.30;99.90;;;;;;4970096;28;20062;-77
2021/03/27 02:39:45;;;;;;;31.02;20.55;;;7.80;99.90;;;;;;4968530;28;20663;-78
2021/03/27 02:42:30;;;;;;;31.20;23.10;;;7.50;99.90;;;;;;4956983;28;20089;-77
2021/03/27 02:45:08;;;;;;;29.88;21.45;;;7.30;99.90;;;;;;4973285;28;20060;-76
2021/03/27 02:47:58;;;;;;;34.97;20.67;;;7.10;99.90;;;;;;4956126;28;20054;-75
2021/03/27 02:51:04;;;;;;;18.05;12.45;;;7.00;99.90;;;;;;4983802;28;20070;-74
2021/03/27 02:53:43;;;;;;;18.60;13.13;;;6.80;99.90;;;;;;4979465;28;20053;-76
2021/03/27 02:56:20;;;;;;;19.67;12.52;;;6.60;99.90;;;;;;4987888;28;20050;-76
2021/03/27 02:59:11;;;;;;;16.58;8.65;;;6.50;99.90;;;;;;4956839;28;20221;-75
2021/03/27 03:01:46;;;;;;;9.60;7.40;;;6.30;99.90;;;;;;4972915;28;20047;-75
2021/03/27 03:04:41;;;;;;;6.47;4.38;;;6.00;99.90;;;;;;4992630;28;20744;-76
2021/03/27 03:07:27;;;;;;;7.63;5.40;;;5.60;99.90;;;;;;4987972;28;20056;-76
2021/03/27 03:10:06;;;;;;;9.25;5.55;;;5.40;99.90;;;;;;4972030;28;20050;-76
2021/03/27 03:12:39;;;;;;;9.55;6.45;;;5.40;99.90;;;;;;4972046;28;20051;-75
2021/03/27 03:15:26;;;;;;;9.23;5.35;;;5.30;99.90;;;;;;4972332;28;20050;-77
2021/03/27 03:17:57;;;;;;;6.30;4.30;;;5.20;99.90;;;;;;5001430;28;20050;-76
2021/03/27 03:20:47;;;;;;;6.30;3.22;;;5.10;99.90;;;;;;4974148;28;20100;-76
2021/03/27 03:23:37;;;;;;;3.42;2.83;;;5.00;99.90;;;;;;4978716;28;20060;-76
2021/03/27 03:26:16;;;;;;;5.65;3.70;;;4.90;99.90;;;;;;4993828;28;20034;-77
2021/03/27 03:29:02;;;;;;;5.60;3.33;;;4.90;99.90;;;;;;5008761;28;20030;-76
2021/03/27 03:31:52;;;;;;;12.63;6.47;;;5.00;99.90;;;;;;5014709;28;20073;-76
2021/03/27 03:34:56;;;;;;;12.25;6.35;;;4.90;99.90;;;;;;5013928;28;20030;-76
2021/03/27 03:37:38;;;;;;;24.73;12.05;;;5.00;99.90;;;;;;5019263;28;20057;-75
2021/03/27 03:40:13;;;;;;;18.70;9.85;;;5.00;99.90;;;;;;5013029;28;20034;-76
2021/03/27 03:43:11;;;;;;;23.17;11.55;;;5.00;99.90;;;;;;4996446;28;20069;-75
2021/03/27 03:46:06;;;;;;;18.25;10.70;;;5.00;99.90;;;;;;5003373;28;20041;-75
2021/03/27 03:48:53;;;;;;;17.93;9.73;;;4.90;99.90;;;;;;4995293;28;20042;-76
2021/03/27 03:51:45;;;;;;;27.17;11.77;;;4.90;99.90;;;;;;4966691;28;20056;-75
2021/03/27 03:54:46;;;;;;;27.77;14.32;;;4.90;99.90;;;;;;4985702;28;20108;-76
2021/03/27 03:57:30;;;;;;;44.17;21.35;;;5.00;99.90;;;;;;4975167;28;20045;-75
2021/03/27 04:00:42;;;;;;;45.67;22.97;;;4.80;99.90;;;;;;4957673;28;20053;-76
2021/03/27 04:03:30;;;;;;;42.13;22.33;;;4.70;99.90;;;;;;4926409;29;20062;-75
2021/03/27 04:06:02;;;;;;;41.75;19.90;;;4.60;99.90;;;;;;4927373;29;20039;-75
2021/03/27 04:08:50;;;;;;;37.85;21.00;;;4.60;99.90;;;;;;4963791;28;20300;-76
2021/03/27 04:11:54;;;;;;;36.75;20.42;;;4.60;99.90;;;;;;4970902;28;20225;-76
2021/03/27 04:14:35;;;;;;;32.58;17.65;;;4.60;99.90;;;;;;4985872;28;20081;-76
2021/03/27 04:17:18;;;;;;;32.92;17.77;;;4.60;99.90;;;;;;4973555;28;20058;-76
2021/03/27 04:20:10;;;;;;;34.03;19.00;;;4.60;99.90;;;;;;4973781;28;20038;-76
2021/03/27 04:22:43;;;;;;;38.17;20.50;;;4.60;99.90;;;;;;4957647;28;20077;-75
2021/03/27 04:25:35;;;;;;;33.33;17.85;;;4.60;99.90;;;;;;4989519;28;20077;-76
2021/03/27 04:28:31;;;;;;;41.25;18.73;;;4.60;99.90;;;;;;4970994;28;20459;-75
2021/03/27 04:31:03;;;;;;;34.22;18.33;;;4.60;99.90;;;;;;4980466;28;20069;-76
2021/03/27 04:33:48;;;;;;;33.92;16.92;;;4.60;99.90;;;;;;4956692;28;20050;-75
2021/03/27 04:36:21;;;;;;;41.67;21.42;;;4.60;99.90;;;;;;4982114;28;20517;-75
2021/03/27 04:39:27;;;;;;;43.88;20.52;;;4.60;99.90;;;;;;4970567;28;20074;-75
2021/03/27 04:42:12;;;;;;;25.52;13.60;;;4.60;99.90;;;;;;4949689;28;20105;-76
2021/03/27 04:45:06;;;;;;;27.42;13.07;;;4.50;99.90;;;;;;4988247;28;20060;-75
2021/03/27 04:47:43;;;;;;;23.52;12.05;;;4.40;99.90;;;;;;4970499;28;20054;-74
2021/03/27 04:50:12;;;;;;;17.60;10.35;;;4.40;99.90;;;;;;4960762;28;20054;-76
2021/03/27 04:52:54;;;;;;;21.65;10.85;;;4.30;99.90;;;;;;4996556;28;20168;-76
2021/03/27 04:55:44;;;;;;;19.58;10.30;;;4.20;99.90;;;;;;4983243;28;20134;-76
2021/03/27 04:58:35;;;;;;;18.25;10.77;;;4.20;99.90;;;;;;4980883;28;20057;-76
2021/03/27 05:01:18;;;;;;;19.35;10.65;;;4.30;99.90;;;;;;4982345;28;20050;-76
2021/03/27 05:04:10;;;;;;;18.02;9.35;;;4.30;99.90;;;;;;4969990;28;20046;-76
2021/03/27 05:06:53;;;;;;;17.90;9.50;;;4.20;99.90;;;;;;4995366;28;20133;-75
2021/03/27 05:09:53;;;;;;;19.73;10.82;;;4.20;99.90;;;;;;5006267;28;20058;-75
2021/03/27 05:12:51;;;;;;;13.13;8.25;;;4.20;99.90;;;;;;4984892;28;20259;-76
2021/03/27 05:15:40;;;;;;;19.05;9.10;;;4.30;99.90;;;;;;4965099;28;20049;-76
2021/03/27 05:18:38;;;;;;;17.45;7.85;;;4.30;99.90;;;;;;5005665;28;20081;-77
2021/03/27 05:21:39;;;;;;;17.30;9.65;;;4.40;99.90;;;;;;4992661;28;20053;-76
2021/03/27 05:24:11;;;;;;;19.33;9.95;;;4.40;99.90;;;;;;4994537;28;20045;-76
2021/03/27 05:27:03;;;;;;;18.70;10.77;;;4.30;99.90;;;;;;4974892;28;20053;-76
2021/03/27 05:29:57;;;;;;;15.52;9.52;;;4.40;99.90;;;;;;4979049;28;20046;-77
2021/03/27 05:32:49;;;;;;;15.43;8.25;;;4.40;99.90;;;;;;4986390;28;20050;-77
2021/03/27 05:35:34;;;;;;;14.85;10.05;;;4.40;99.90;;;;;;4968707;28;20077;-77
2021/03/27 05:38:20;;;;;;;18.70;11.20;;;4.40;99.90;;;;;;4984088;28;20080;-76
2021/03/27 05:41:15;;;;;;;15.63;10.65;;;4.50;99.90;;;;;;4968255;28;20093;-77
2021/03/27 05:43:44;;;;;;;15.57;9.35;;;4.50;99.90;;;;;;4967077;28;20046;-77
2021/03/27 05:46:48;;;;;;;13.93;9.15;;;4.50;99.90;;;;;;4952618;28;20066;-76
2021/03/27 05:49:28;;;;;;;15.98;9.98;;;4.50;99.90;;;;;;5004362;28;20050;-76
2021/03/27 05:52:10;;;;;;;17.48;11.23;;;4.50;99.90;;;;;;4979505;28;20042;-76
2021/03/27 05:54:40;;;;;;;19.15;12.43;;;4.50;99.90;;;;;;4995063;28;20050;-76
2021/03/27 05:57:17;;;;;;;17.13;11.35;;;4.50;99.90;;;;;;4972478;28;20046;-76
2021/03/27 06:00:05;;;;;;;24.27;11.68;;;4.50;99.90;;;;;;4987753;28;20050;-78
2021/03/27 06:03:03;;;;;;;18.63;11.20;;;4.50;99.90;;;;;;4989340;28;20050;-76
2021/03/27 06:05:56;;;;;;;16.88;11.30;;;4.50;99.90;;;;;;4979855;28;20133;-76
2021/03/27 06:08:25;;;;;;;20.35;11.95;;;4.50;99.90;;;;;;4985589;28;20493;-79
2021/03/27 06:11:34;;;;;;;24.75;12.95;;;4.50;99.90;;;;;;4953634;28;20046;-78
2021/03/27 06:14:11;;;;;;;22.20;12.00;;;4.50;99.90;;;;;;4959900;28;20119;-72
2021/03/27 06:17:15;;;;;;;16.70;11.75;;;4.60;99.90;;;;;;5008020;28;20080;-77
2021/03/27 06:19:55;;;;;;;20.65;10.80;;;4.60;99.90;;;;;;4992367;28;20060;-77
2021/03/27 06:22:58;;;;;;;16.88;12.70;;;4.60;99.90;;;;;;4957242;28;20595;-77
2021/03/27 06:25:52;;;;;;;25.83;12.38;;;4.60;99.90;;;;;;4984139;28;20544;-77
2021/03/27 06:28:56;;;;;;;18.25;12.80;;;4.70;99.90;;;;;;4988946;28;20042;-77
2021/03/27 06:31:57;;;;;;;18.25;11.57;;;4.60;99.90;;;;;;4971831;28;20065;-78
2021/03/27 06:34:47;;;;;;;18.02;11.00;;;4.60;99.90;;;;;;4986947;28;20490;-76
2021/03/27 06:37:51;;;;;;;17.52;11.32;;;4.60;99.90;;;;;;4983019;28;20041;-76
2021/03/27 06:40:28;;;;;;;22.95;12.93;;;4.70;99.90;;;;;;5001319;28;20046;-77
2021/03/27 06:43:24;;;;;;;18.35;10.85;;;4.70;99.90;;;;;;4972699;28;20049;-76
2021/03/27 06:46:21;;;;;;;19.53;12.77;;;4.70;99.90;;;;;;4972055;28;20073;-79
2021/03/27 06:49:17;;;;;;;19.92;11.70;;;4.70;99.90;;;;;;4987471;28;20297;-77
2021/03/27 06:51:49;;;;;;;20.00;12.32;;;4.70;99.90;;;;;;4968707;28;20050;-77
2021/03/27 06:54:31;;;;;;;20.27;12.23;;;4.70;99.90;;;;;;4953009;28;20050;-79
2021/03/27 06:57:07;;;;;;;21.15;14.65;;;4.80;99.90;;;;;;4968760;28;20054;-76
2021/03/27 06:59:55;;;;;;;17.02;11.65;;;4.90;99.90;;;;;;4967899;28;20080;-76
2021/03/27 07:02:57;;;;;;;15.73;12.02;;;4.90;99.90;;;;;;4960466;28;20115;-78
2021/03/27 07:05:54;;;;;;;20.52;13.07;;;4.90;99.90;;;;;;4970444;28;20042;-77
2021/03/27 07:08:21;;;;;;;12.52;11.27;;;5.00;99.90;;;;;;4994694;28;20108;-77
2021/03/27 07:11:23;;;;;;;16.40;11.95;;;5.10;99.90;;;;;;4969241;28;20046;-77
2021/03/27 07:14:07;;;;;;;21.27;12.75;;;5.10;99.90;;;;;;4954145;28;20074;-78
2021/03/27 07:17:03;;;;;;;22.42;13.52;;;5.20;99.90;;;;;;4954331;28;20128;-78
2021/03/27 07:19:48;;;;;;;;;;;5.30;99.90;;;;;;4979109;28;20484;-78
2021/03/27 07:22:37;;;;;;;22.35;12.43;;;5.30;99.90;;;;;;4988602;28;20358;-78
2021/03/27 07:25:34;;;;;;;16.77;11.30;;;5.30;99.90;;;;;;4971623;28;20095;-77
2021/03/27 07:28:03;;;;;;;19.40;13.00;;;5.30;99.90;;;;;;4991797;28;20125;-78
2021/03/27 07:30:45;;;;;;;16.55;11.50;;;5.30;99.90;;;;;;5009440;28;20046;-77
2021/03/27 07:33:30;;;;;;;17.05;12.00;;;5.40;99.90;;;;;;4986782;28;20053;-77
2021/03/27 07:36:38;;;;;;;41.13;13.65;;;5.50;99.90;;;;;;4966972;28;20062;-77
2021/03/27 07:39:24;;;;;;;15.13;11.80;;;5.50;99.90;;;;;;4960738;28;20595;-77
2021/03/27 07:42:10;;;;;;;;;;;5.50;99.90;;;;;;4990298;28;20042;-77
2021/03/27 07:44:39;;;;;;;16.95;12.07;;;5.50;99.90;;;;;;4992084;28;19921;-77
2021/03/27 07:47:29;;;;;;;17.55;13.80;;;5.40;99.90;;;;;;4991283;28;20057;-76
2021/03/27 07:50:02;;;;;;;16.20;12.73;;;5.40;99.90;;;;;;4975437;28;20053;-78
2021/03/27 07:52:55;;;;;;;12.65;11.48;;;5.40;99.90;;;;;;4975436;28;20057;-77
2021/03/27 07:55:53;;;;;;;15.45;11.95;;;5.30;99.90;;;;;;4975500;28;20057;-79
2021/03/27 07:58:46;;;;;;;12.50;11.15;;;5.30;99.90;;;;;;4974667;28;20500;-76
2021/03/27 08:01:37;;;;;;;12.75;11.45;;;5.50;99.90;;;;;;4983901;28;20598;-77
2021/03/27 08:04:35;;;;;;;14.25;12.70;;;5.40;99.90;;;;;;4977244;28;20056;-77
2021/03/27 08:07:20;;;;;;;10.48;9.65;;;5.40;99.90;;;;;;4969353;28;20073;-78
2021/03/27 08:10:27;;;;;;;13.98;10.40;;;5.40;99.90;;;;;;4990713;28;20711;-79
2021/03/27 08:13:29;;;;;;;;;;;5.50;99.90;;;;;;4966355;28;20530;-77
2021/03/27 08:16:14;;;;;;;12.25;11.00;;;5.40;99.90;;;;;;4934400;28;20676;-78
2021/03/27 08:19:15;;;;;;;13.43;11.82;;;5.40;99.90;;;;;;4970893;28;20061;-78
2021/03/27 08:21:50;;;;;;;13.55;12.23;;;5.40;99.90;;;;;;4983568;28;20049;-77
2021/03/27 08:24:30;;;;;;;;;;;5.50;99.90;;;;;;5000007;28;20086;-77
2021/03/27 08:27:22;;;;;;;13.80;12.60;;;5.60;99.90;;;;;;4964337;28;20008;-77
2021/03/27 08:30:16;;;;;;;14.27;12.70;;;5.60;99.90;;;;;;4938767;28;20065;-78
2021/03/27 08:33:01;;;;;;;13.02;11.90;;;5.70;99.90;;;;;;4986963;28;20081;-78
2021/03/27 08:35:48;;;;;;;14.80;11.93;;;5.80;99.90;;;;;;4982800;28;20364;-78
2021/03/27 08:38:33;;;;;;;13.80;11.02;;;5.80;99.90;;;;;;5003468;28;20064;-80
2021/03/27 08:41:13;;;;;;;13.32;10.10;;;5.50;99.90;;;;;;4959216;28;20041;-79
2021/03/27 08:44:18;;;;;;;15.43;10.02;;;5.20;99.90;;;;;;4971645;28;20050;-75
2021/03/27 08:47:05;;;;;;;14.50;10.70;;;5.10;99.90;;;;;;4996435;28;20077;-78
2021/03/27 08:49:40;;;;;;;14.45;11.02;;;5.20;99.90;;;;;;4971852;28;20062;-78
2021/03/27 08:52:26;;;;;;;11.25;10.18;;;5.30;99.90;;;;;;4973977;28;20077;-78
2021/03/27 08:55:24;;;;;;;13.05;11.80;;;5.40;99.90;;;;;;4958082;28;20054;-77
2021/03/27 08:58:13;;;;;;;11.85;10.68;;;5.60;99.90;;;;;;5006578;28;20042;-77
2021/03/27 09:01:06;;;;;;;16.42;11.30;;;5.70;99.90;;;;;;4970854;28;20054;-75
2021/03/27 09:03:35;;;;;;;5.95;5.65;;;5.50;99.90;;;;;;4967905;28;20101;-76
2021/03/27 09:06:39;;;;;;;3.95;3.65;;;4.40;99.90;;;;;;4977540;28;20046;-77
2021/03/27 09:09:32;;;;;;;5.07;2.97;;;2.90;99.90;;;;;;4954674;28;20078;-76
2021/03/27 09:12:36;;;;;;;1.67;1.58;;;1.90;99.90;;;;;;4986851;28;20049;-76
2021/03/27 09:15:40;;;;;;;2.22;1.50;;;1.70;99.90;;;;;;4972314;28;20042;-77
2021/03/27 09:18:43;;;;;;;1.88;1.70;;;1.50;99.90;;;;;;4990930;28;20041;-77
2021/03/27 09:21:26;;;;;;;3.40;1.45;;;1.30;99.90;;;;;;4958014;28;20486;-76
2021/03/27 09:24:23;;;;;;;2.72;1.83;;;1.30;99.90;;;;;;4992006;28;20065;-75
2021/03/27 09:27:43;;;;;;;2.90;1.40;;;1.40;99.90;;;;;;4973394;28;20042;-76
2021/03/27 09:30:34;;;;;;;9.15;4.55;;;1.40;99.90;;;;;;4932598;28;20051;-75
2021/03/27 09:33:13;;;;;;;7.05;4.05;;;1.50;99.90;;;;;;4972756;28;20563;-76
2021/03/27 09:35:53;;;;;;;10.98;3.30;;;1.60;99.90;;;;;;4967574;28;20049;-76
2021/03/27 09:38:58;;;;;;;7.53;4.15;;;1.60;99.90;;;;;;4958764;28;20512;-75
2021/03/27 09:41:59;;;;;;;5.22;3.80;;;1.70;99.90;;;;;;4968293;28;20057;-77
2021/03/27 09:44:43;;;;;;;23.23;9.60;;;1.80;99.90;;;;;;4970081;28;20062;-76
2021/03/27 09:47:48;;;;;;;41.10;20.23;;;1.80;99.90;;;;;;4954344;28;20046;-77
2021/03/27 09:50:49;;;;;;;22.90;11.85;;;1.90;99.90;;;;;;4985042;28;20062;-75
2021/03/27 09:53:32;;;;;;;13.18;6.20;;;2.00;99.90;;;;;;4983527;28;20501;-75
2021/03/27 09:56:33;;;;;;;8.52;4.82;;;2.10;99.90;;;;;;4969246;28;20163;-75
2021/03/27 09:59:10;;;;;;;12.73;6.80;;;2.30;99.90;;;;;;4985275;28;20058;-76
2021/03/27 10:01:46;;;;;;;9.45;5.43;;;2.40;99.90;;;;;;4979139;28;20057;-76
2021/03/27 10:04:34;;;;;;;7.45;4.10;;;2.40;99.90;;;;;;4993856;28;20053;-77
2021/03/27 10:07:26;;;;;;;9.68;4.60;;;2.40;99.90;;;;;;4980133;28;20389;-76
2021/03/27 10:10:31;;;;;;;9.68;5.55;;;2.40;99.90;;;;;;4959881;28;20080;-76
2021/03/27 10:13:23;;;;;;;13.27;5.72;;;2.50;99.90;;;;;;4979349;28;20053;-76
2021/03/27 10:15:57;;;;;;;14.27;8.25;;;2.70;99.90;;;;;;4963084;28;20120;-76
2021/03/27 10:18:53;;;;;;;13.07;6.20;;;2.70;99.90;;;;;;4987949;28;20826;-76
2021/03/27 10:21:46;;;;;;;13.25;7.30;;;2.90;99.90;;;;;;4974182;28;20050;-76
2021/03/27 10:24:18;;;;;;;11.30;5.75;;;2.90;99.90;;;;;;4957843;28;20639;-77
2021/03/27 10:27:01;;;;;;;10.40;4.30;;;3.00;99.90;;;;;;4975100;28;20056;-76
2021/03/27 10:29:43;;;;;;;11.48;6.05;;;3.10;99.90;;;;;;4975226;28;20153;-76
2021/03/27 10:32:44;;;;;;;17.65;7.05;;;3.20;99.90;;;;;;4986166;28;20042;-75
2021/03/27 10:35:29;;;;;;;16.33;6.90;;;3.40;99.90;;;;;;4981056;28;20046;-77
2021/03/27 10:38:10;;;;;;;12.98;7.70;;;3.60;99.90;;;;;;4982462;28;20045;-77
2021/03/27 10:40:55;;;;;;;14.38;7.05;;;3.80;99.90;;;;;;4991675;28;20053;-77
2021/03/27 10:43:59;;;;;;;27.25;7.20;;;3.90;99.90;;;;;;4991803;28;20046;-76
2021/03/27 10:46:35;;;;;;;17.52;8.65;;;4.20;99.90;;;;;;4988551;28;20125;-76
2021/03/27 10:49:47;;;;;;;18.10;7.50;;;4.30;99.90;;;;;;4970147;28;20049;-77
2021/03/27 10:52:50;;;;;;;12.90;6.65;;;4.30;99.90;;;;;;4963234;28;20954;-76
2021/03/27 10:55:57;;;;;;;16.80;8.80;;;4.30;99.90;;;;;;4984677;28;20058;-76
2021/03/27 10:58:49;;;;;;;20.45;7.70;;;4.40;99.90;;;;;;4985638;28;20062;-77
2021/03/27 11:01:45;;;;;;;19.45;7.88;;;4.80;99.90;;;;;;5002626;28;20066;-76
2021/03/27 11:04:29;;;;;;;;;;;5.00;99.90;;;;;;4975615;28;20060;-77
2021/03/27 11:07:48;;;;;;;21.65;7.93;;;5.30;99.90;;;;;;4997015;28;19922;-76
2021/03/27 11:10:39;;;;;;;19.35;8.85;;;5.70;99.90;;;;;;5005435;28;20062;-76
2021/03/27 11:13:34;;;;;;;17.15;9.82;;;5.80;99.90;;;;;;4976333;28;20054;-76
2021/03/27 11:16:19;;;;;;;13.73;10.73;;;6.00;99.90;;;;;;4960126;28;20080;-77
2021/03/27 11:19:10;;;;;;;13.77;9.85;;;6.10;99.90;;;;;;4991230;28;20042;-76
2021/03/27 11:22:17;;;;;;;14.50;11.02;;;5.90;99.90;;;;;;4974972;28;21690;-76
2021/03/27 11:24:43;;;;;;;12.95;11.65;;;5.60;99.90;;;;;;4964301;28;20826;-77
2021/03/27 11:27:49;;;;;;;10.18;9.27;;;5.40;99.90;;;;;;4942306;28;20100;-76
2021/03/27 11:30:45;;;;;;;3.53;1.70;;;4.40;99.90;;;;;;4982134;28;20074;-77
2021/03/27 11:33:23;;;;;;;2.25;1.48;;;2.10;99.90;;;;;;4977981;28;20050;-77
2021/03/27 11:36:08;;;;;;;2.17;1.48;;;1.50;99.90;;;;;;4975472;28;20116;-77
2021/03/27 11:38:45;;;;;;;5.38;1.55;;;1.30;99.90;;;;;;4973338;28;20054;-77
2021/03/27 11:41:32;;;;;;;2.42;1.50;;;1.20;99.90;;;;;;4939456;28;20432;-76
2021/03/27 11:44:37;;;;;;;3.25;1.95;;;1.20;99.90;;;;;;4973350;28;20050;-78
2021/03/27 11:47:25;;;;;;;4.10;1.88;;;1.20;99.90;;;;;;4955286;28;20073;-77
2021/03/27 11:50:04;;;;;;;5.40;2.55;;;1.30;99.90;;;;;;4988359;28;20072;-75
2021/03/27 11:52:40;;;;;;;4.88;2.55;;;1.40;99.90;;;;;;4978637;28;20046;-74
2021/03/27 11:55:15;;;;;;;6.63;3.28;;;1.50;99.90;;;;;;4981381;28;20062;-76
2021/03/27 11:58:11;;;;;;;4.40;2.58;;;1.70;99.90;;;;;;4971692;28;20081;-76
2021/03/27 12:01:01;;;;;;;8.88;3.03;;;1.90;99.90;;;;;;4969747;28;20054;-75
2021/03/27 12:03:34;;;;;;;3.47;1.92;;;2.20;99.90;;;;;;4971855;28;20042;-76
2021/03/27 12:06:23;;;;;;;6.38;3.08;;;2.20;99.90;;;;;;4988413;28;20093;-76
2021/03/27 12:09:18;;;;;;;51.03;8.15;;;2.20;99.90;;;;;;5010084;28;20080;-77
2021/03/27 12:12:07;;;;;;;23.20;4.72;;;2.50;99.90;;;;;;4991099;28;20149;-76
2021/03/27 12:14:53;;;;;;;18.40;4.10;;;2.90;99.90;;;;;;4992046;28;20046;-77
2021/03/27 12:17:38;;;;;;;9.23;2.92;;;3.30;99.90;;;;;;4991689;28;20038;-77
2021/03/27 12:20:35;;;;;;;7.43;2.85;;;3.50;99.90;;;;;;4991370;28;20053;-77
2021/03/27 12:23:22;;;;;;;6.68;3.17;;;3.50;99.90;;;;;;4955645;28;20053;-75
2021/03/27 12:26:23;;;;;;;9.50;3.40;;;3.70;99.90;;;;;;4973049;28;20055;-77
2021/03/27 12:28:59;;;;;;;4.57;3.28;;;4.10;99.90;;;;;;4964798;28;20064;-75
2021/03/27 12:31:34;;;;;;;10.10;6.35;;;3.90;99.90;;;;;;4990204;28;20057;-75
2021/03/27 12:34:17;;;;;;;9.30;5.07;;;4.20;99.90;;;;;;4975602;28;20121;-76
2021/03/27 12:36:59;;;;;;;9.55;5.47;;;4.00;99.90;;;;;;4983783;28;20420;-76
2021/03/27 12:39:30;;;;;;;11.40;5.85;;;4.20;99.90;;;;;;4991513;28;20050;-76
2021/03/27 12:41:57;;;;;;;11.13;5.22;;;4.30;99.90;;;;;;4989548;28;20046;-76
2021/03/27 12:44:39;;;;;;;9.50;6.60;;;4.40;99.90;;;;;;4975457;28;20199;-76
2021/03/27 12:47:53;;;;;;;16.95;7.25;;;4.50;99.90;;;;;;4978575;28;20045;-75
2021/03/27 12:50:39;;;;;;;10.25;5.68;;;4.70;99.90;;;;;;4941520;28;20136;-76
2021/03/27 12:53:44;;;;;;;9.73;5.45;;;4.70;99.90;;;;;;4989750;28;20080;-76
2021/03/27 12:57:01;;;;;;;15.07;4.68;;;4.70;99.90;;;;;;4973576;28;20196;-75
2021/03/27 12:59:53;;;;;;;12.98;6.15;;;4.70;99.90;;;;;;4972884;28;20078;-76
2021/03/27 13:02:57;;;;;;;20.27;7.53;;;4.80;99.90;;;;;;4970742;28;20134;-76
2021/03/27 13:05:42;;;;;;;13.70;7.28;;;4.90;99.90;;;;;;4964770;28;20042;-76
2021/03/27 13:08:16;;;;;;;9.93;6.20;;;5.30;99.90;;;;;;5001686;28;20100;-75
2021/03/27 13:10:57;;;;;;;17.92;7.38;;;5.40;99.90;;;;;;4973860;28;20046;-75
2021/03/27 13:13:52;;;;;;;14.85;7.90;;;5.60;99.90;;;;;;4977723;28;20042;-75
2021/03/27 13:16:58;;;;;;;15.13;7.53;;;5.80;99.90;;;;;;4983305;28;20050;-75
2021/03/27 13:19:44;;;;;;;14.40;6.47;;;6.30;99.90;;;;;;4953536;28;20042;-76
2021/03/27 13:22:26;;;;;;;15.43;7.95;;;6.40;99.90;;;;;;4961077;28;20424;-75
2021/03/27 13:25:03;;;;;;;10.13;7.45;;;6.70;99.90;;;;;;4984563;28;20057;-75
2021/03/27 13:27:57;;;;;;;10.77;9.70;;;6.40;99.90;;;;;;4986078;28;20081;-76
2021/03/27 13:30:31;;;;;;;20.23;11.00;;;6.10;99.90;;;;;;4968283;28;20467;-76
2021/03/27 13:33:16;;;;;;;11.75;10.50;;;5.80;99.90;;;;;;4980924;28;20518;-75
2021/03/27 13:35:49;;;;;;;14.63;12.88;;;5.70;99.90;;;;;;4976453;28;20046;-75
2021/03/27 13:38:45;;;;;;;14.68;13.05;;;5.50;99.90;;;;;;5001606;28;20139;-75
2021/03/27 13:41:44;;;;;;;14.10;12.75;;;4.90;99.90;;;;;;4955465;28;20057;-75
2021/03/27 13:44:29;;;;;;;16.50;13.93;;;4.30;99.90;;;;;;4969054;28;20061;-74
2021/03/27 13:47:33;;;;;;;11.10;10.05;;;3.70;99.90;;;;;;4970183;28;20053;-74
2021/03/27 13:50:33;;;;;;;11.35;10.23;;;3.50;99.90;;;;;;4980669;28;20062;-76
2021/03/27 13:53:22;;;;;;;11.50;10.35;;;3.60;99.90;;;;;;4982736;28;20054;-75
2021/03/27 13:56:12;;;;;;;14.35;10.98;;;3.80;99.90;;;;;;4959454;28;20049;-76
2021/03/27 13:59:00;;;;;;;16.58;12.40;;;3.90;99.90;;;;;;5001498;28;20053;-75
2021/03/27 14:04:41;;;;;;;17.17;11.40;;;4.60;99.90;;;;;;5196282;23;20751;-74
2021/03/27 14:07:35;;;;;;;13.02;11.45;;;4.70;99.90;;;;;;4879455;29;20045;-75
2021/03/27 14:10:39;;;;;;;13.88;11.90;;;4.90;99.90;;;;;;4875479;29;20068;-75
2021/03/27 14:13:13;;;;;;;15.35;13.35;;;5.20;99.90;;;;;;4890343;29;20056;-76
2021/03/27 14:15:47;;;;;;;14.80;13.15;;;5.20;99.90;;;;;;4868296;29;20223;-76
2021/03/27 14:18:39;;;;;;;14.43;12.85;;;5.30;99.90;;;;;;4874758;29;20032;-76
2021/03/27 14:21:15;;;;;;;14.73;13.23;;;5.30;99.90;;;;;;4855815;29;20100;-75
2021/03/27 14:24:24;;;;;;;22.48;15.25;;;5.30;99.90;;;;;;4861430;29;20040;-76
2021/03/27 14:27:03;;;;;;;23.50;16.08;;;5.30;99.90;;;;;;4877891;29;20392;-76
2021/03/27 14:29:58;;;;;;;22.98;15.57;;;5.40;99.90;;;;;;4887191;29;20491;-76
2021/03/27 14:32:33;;;;;;;17.58;15.98;;;5.50;99.90;;;;;;4890213;29;20443;-76